x

Virginia Beach 64 Nm East Of Virginia Beach, Va (44014) Wave Buoy

2:50 - Sat 22nd Nov 2014 All times are EST. -5 hours from GMT.

  • Sig Wave height 2.3ft
  • Swell Direction
  • Peak Period 8s
  • Average Period 5s
  • Wind
    9mph, 13mph gusts
  • Sea Temp 61°f
  • Luft Temp 50°f
  • Sea Pressure 1030.3mb
  • Virginia Beach 64 Nm East Of Virginia Beach, Va
  • Virginia Beach 64 Nm East Of Virginia Beach, Va

More Historic Weather Station data

Upgrade to MSW Pro to gain access to the past 30 days of data for over 8000 Wavebouys and Weather Stations around the globe.

Join Pro

Comparision Forecast

View Surf forecast
   
Sa 11/22 2:50 2.5ft 8s 5s 9 13 mph 1030.3mb 61f 50f
1:50 2.5ft 8s 5s 9 11 mph 1031mb 61f 49f
12:50 2.5ft 5s 5s 7 9 mph 1032.2mb 61f 48f
11:50 2.5ft 6s 5s 4 7 mph 1033.4mb 60f 47f
10:50 2.5ft 6s 5s 4 11 mph 1034.5mb 60f 46f
9:50 2.5ft 5s 5s 2 7 mph 1035mb 60f 45f
8:50 3ft 6s 5s 2 7 mph 1034.7mb 60f 45f
7:50 3ft 6s 5s 2 7 mph 1034.6mb 60f 44f
6:50 3ft 6s 5s 2 4 mph 1034.3mb 60f 43f
5:50 3ft 6s 5s 7 9 mph 1034mb 60f 43f
4:50 3.5ft 6s 5s 7 9 mph 1034.1mb 60f 43f
3:50 3.5ft 6s 5s 9 13 mph 1033.8mb 60f 42f
2:50 4ft 7s 5s 9 13 mph 1034mb 60f 42f
1:50 4.5ft 6s 5s 11 16 mph 1034.1mb 60f 42f
12:50 4.5ft 6s 5s 11 18 mph 1033.9mb 61f 42f
Fr 11/21 11:50 5.5ft 7s 5s 13 18 mph 1033.9mb 61f 42f
10:50 6ft 7s 5s 18 22 mph 1033.6mb 61f 42f
9:50 6.5ft 7s 5s 20 27 mph 1033.6mb 60f 42f
8:50 7ft 7s 6s 22 27 mph 1033.1mb 60f 42f
7:50 7ft 8s 5s 25 31 mph 1032.7mb 60f 41f
6:50 8ft 8s 6s 22 27 mph 1032.4mb 60f 41f
5:50 8ft 8s 6s 22 29 mph 1032mb 61f 41f
4:50 8.5ft 8s 6s 27 34 mph 1030.8mb 61f 41f
3:50 9ft 8s 6s 27 36 mph 1029.9mb 61f 41f
2:50 8ft 8s 6s 27 34 mph 1029.3mb 61f 41f
1:50 7.5ft 8s 6s 27 36 mph 1028.4mb 61f 42f
12:50 7ft 7s 5s 27 34 mph 1027.9mb 61f 42f
11:50 6.5ft 7s 5s 25 31 mph 1028.1mb 61f 42f
10:50 7ft 7s 6s 22 29 mph 1028.4mb 61f 42f
9:50 7ft 7s 5s 25 31 mph 1027.4mb 61f 42f
8:50 6.5ft 6s 5s 25 29 mph 1026.5mb 61f 43f
7:50 5ft 6s 5s 22 27 mph 1025.3mb 61f 44f
6:50 4.5ft 5s 4s 22 29 mph 1023.8mb 61f 45f
5:50 4ft 5s 4s 20 25 mph 1022.2mb 61f 47f
4:50 4.5ft 5s 5s 20 25 mph 1021mb 61f 49f
3:50 4.5ft 5s 5s 18 25 mph 1020.1mb 61f 50f
2:50 5ft 5s 5s 20 22 mph 1019.6mb 61f 52f
1:50 6ft 5s 5s 25 29 mph 1018.6mb 61f 54f
12:50 5.5ft 5s 5s 27 34 mph 1018mb 61f 56f
Do 11/20 11:50 5ft 5s 4s 27 34 mph 1017.4mb 61f 57f
10:50 5ft 6s 4s 27 34 mph 1017.2mb 61f 57f
9:50 5ft 5s 4s 25 31 mph 1017mb 61f 57f
8:50 5ft 5s 4s 25 34 mph 1017mb 61f 57f
7:50 5ft 5s 4s 27 31 mph 1016.8mb 61f 57f
6:50 5ft 5s 4s 27 31 mph 1016.5mb 61f 57f
5:50 4.5ft 5s 4s 27 34 mph 1015.3mb 61f 56f
4:50 4.5ft 5s 4s 25 27 mph 1014.7mb 61f 56f
3:50 3.5ft 5s 4s 22 27 mph 1014.9mb 61f 55f
2:50 4ft 5s 4s 22 27 mph 1015.1mb 61f 55f
1:50 4ft 5s 4s 20 25 mph 1015.5mb 61f 53f
12:50 4.5ft 5s 4s 18 22 mph 1016.6mb 61f 53f
11:50 4.5ft 5s 4s 20 25 mph 1017.7mb 61f 52f
10:50 5ft 6s 4s 20 25 mph 1018.9mb 61f 51f
9:50 5ft 5s 4s 25 29 mph 1019.5mb 61f 50f
8:50 5.5ft 6s 5s 22 29 mph 1019.5mb 61f 50f
7:50 6ft 6s 5s 25 31 mph 1019.3mb 61f 50f
6:50 6.5ft 6s 5s 27 31 mph 1019.5mb 60f 50f
5:50 6ft 6s 5s 27 31 mph 1019.6mb 60f 50f
4:50 5ft 5s 5s 27 31 mph 1019.9mb 60f 49f
3:50 6ft 6s 5s 27 31 mph 1020.8mb 60f 48f
2:50 5.5ft 6s 5s 27 34 mph 1021.4mb 60f 49f
1:50 5.5ft 5s 5s 27 34 mph 1021.8mb 60f 47f
12:50 6ft 6s 5s 27 34 mph 1022.1mb 60f 48f
Mi 11/19 11:50 5ft 5s 4s 25 31 mph 1022.8mb 60f 47f
10:50 4.5ft 5s 4s 25 31 mph 1023.3mb 60f 46f
9:50 4ft 4s 4s 25 29 mph 1023.4mb 60f 46f
8:50 3.5ft 4s 4s 22 29 mph 1023.8mb 60f 45f
7:50 3ft 3s 4s 20 27 mph 1024.5mb 60f 44f
6:50 3ft 7s 4s 20 25 mph 1024.5mb 60f 44f
5:50 2.5ft 6s 5s 16 20 mph 1024.7mb 60f 42f
4:50 3ft 6s 5s 16 20 mph 1024.9mb 60f 40f
3:50 3ft 6s 5s 11 16 mph 1025.4mb 60f 40f
2:50 3.5ft 6s 5s 9 16 mph 1026.1mb 60f 38f
1:50 3.5ft 7s 5s 9 13 mph 1026.5mb 60f 38f
12:50 3.5ft 5s 5s 9 16 mph 1027.1mb 60f 37f
11:50 3.5ft 7s 5s 7 11 mph 1027.9mb 60f 37f
10:50 4ft 5s 5s 9 13 mph 1028.8mb 61f 37f
9:50 4.5ft 6s 5s 9 13 mph 1028.7mb 61f 37f
8:50 5ft 6s 5s 13 20 mph 1028.2mb 61f 36f
7:50 5ft 6s 5s 16 22 mph 1027mb 61f 37f
6:50 5ft 6s 5s 20 27 mph 1026.2mb 61f 37f
5:50 5ft 6s 5s 20 25 mph 1025.9mb 61f 37f
4:50 5ft 6s 5s 22 29 mph 1025.2mb 61f 38f
3:50 5ft 6s 5s 18 25 mph 1024.8mb 61f 38f
2:50 6ft 6s 5s 20 27 mph 1024.5mb 61f 38f
1:50 5ft 6s 5s 22 31 mph 1024mb 61f 39f
12:50 5ft 6s 5s 20 27 mph 1023.8mb 61f 39f
Di 11/18 11:50 5.5ft 6s 5s 20 29 mph 1023.5mb 61f 40f
10:50 5.5ft 5s 5s 22 27 mph 1023mb 61f 41f
9:50 5.5ft 6s 5s 25 31 mph 1022.9mb 61f 41f